Terminal Aerodrome Forecast
Issued by NWS

Home | Current Version | Previous Version | Text Only | Print | Product List | Glossary On
Versions: 1 2 3 4 5 6 7 8 9 10 11 12 13 14 15 16 17 18
000
FTUS44 KMOB 210535
TAFBFM
TAF
KBFM 210535Z 2106/2206 15010KT P6SM FEW004 OVC012
      TEMPO 2108/2112 1/2SM FG VV003
     FM211600 14010KT 4SM BR BKN015
     FM211800 15011KT P6SM VCSH OVC025
      TEMPO 2118/2122 5SM TSRA BKN025CB
     FM220300 13008KT 2SM BR OVC004=

USA.gov is the U.S. government's official web portal to all federal, state and local government web resources and services.